sensor_id;sensor_type;location;lat;lon;timestamp;pressure;altitude;pressure_sealevel;temperature;humidity
75298;BME280;63896;45.990;18.688;2023-03-01T00:00:17;101810.19;;;2.23;97.27
75298;BME280;63896;45.990;18.688;2023-03-01T00:03:21;101807.78;;;2.31;97.27
75298;BME280;63896;45.990;18.688;2023-03-01T00:06:24;101804.69;;;2.26;97.40
75298;BME280;63896;45.990;18.688;2023-03-01T00:09:27;101811.72;;;2.26;97.44
75298;BME280;63896;45.990;18.688;2023-03-01T00:12:31;101808.97;;;2.27;97.62
75298;BME280;63896;45.990;18.688;2023-03-01T00:15:38;101814.44;;;2.24;97.53
75298;BME280;63896;45.990;18.688;2023-03-01T00:18:41;101815.06;;;2.17;98.19
75298;BME280;63896;45.990;18.688;2023-03-01T00:21:45;101814.06;;;2.29;98.61
75298;BME280;63896;45.990;18.688;2023-03-01T00:24:47;101820.25;;;2.28;98.10
75298;BME280;63896;45.990;18.688;2023-03-01T00:27:50;101813.69;;;2.33;98.47
75298;BME280;63896;45.990;18.688;2023-03-01T00:30:55;101810.72;;;2.38;97.74
75298;BME280;63896;45.990;18.688;2023-03-01T00:34:01;101811.28;;;2.42;97.26
75298;BME280;63896;45.990;18.688;2023-03-01T00:37:04;101802.59;;;2.41;97.27
75298;BME280;63896;45.990;18.688;2023-03-01T00:40:08;101801.75;;;2.40;97.69
75298;BME280;63896;45.990;18.688;2023-03-01T00:43:14;101798.19;;;2.42;97.97
75298;BME280;63896;45.990;18.688;2023-03-01T00:46:19;101796.72;;;2.49;97.05
75298;BME280;63896;45.990;18.688;2023-03-01T00:49:22;101791.66;;;2.36;97.57
75298;BME280;63896;45.990;18.688;2023-03-01T00:52:26;101792.94;;;2.42;97.70
75298;BME280;63896;45.990;18.688;2023-03-01T00:55:30;101786.31;;;2.37;97.97
75298;BME280;63896;45.990;18.688;2023-03-01T00:58:34;101778.50;;;2.26;97.97
75298;BME280;63896;45.990;18.688;2023-03-01T01:01:37;101778.34;;;2.07;98.54
75298;BME280;63896;45.990;18.688;2023-03-01T01:04:40;101768.34;;;2.12;98.42
75298;BME280;63896;45.990;18.688;2023-03-01T01:07:43;101758.63;;;2.03;99.26
75298;BME280;63896;45.990;18.688;2023-03-01T01:10:46;101763.53;;;1.97;99.65
75298;BME280;63896;45.990;18.688;2023-03-01T01:13:50;101760.03;;;2.07;99.61
75298;BME280;63896;45.990;18.688;2023-03-01T01:16:53;101753.84;;;2.08;99.97
75298;BME280;63896;45.990;18.688;2023-03-01T01:19:56;101751.66;;;2.13;100.00
75298;BME280;63896;45.990;18.688;2023-03-01T01:22:59;101745.28;;;2.06;100.00
75298;BME280;63896;45.990;18.688;2023-03-01T01:26:11;101740.75;;;2.08;100.00
75298;BME280;63896;45.990;18.688;2023-03-01T01:29:15;101735.53;;;2.08;100.00
75298;BME280;63896;45.990;18.688;2023-03-01T01:32:18;101735.13;;;2.13;100.00
75298;BME280;63896;45.990;18.688;2023-03-01T01:35:21;101738.81;;;2.10;99.91
75298;BME280;63896;45.990;18.688;2023-03-01T01:38:24;101732.75;;;2.10;99.70
75298;BME280;63896;45.990;18.688;2023-03-01T01:41:28;101733.13;;;2.05;100.00
75298;BME280;63896;45.990;18.688;2023-03-01T01:44:33;101724.28;;;2.17;99.72
75298;BME280;63896;45.990;18.688;2023-03-01T01:47:37;101733.84;;;2.07;100.00
75298;BME280;63896;45.990;18.688;2023-03-01T01:50:42;101729.50;;;1.97;100.00
75298;BME280;63896;45.990;18.688;2023-03-01T01:53:52;101726.13;;;2.06;100.00
75298;BME280;63896;45.990;18.688;2023-03-01T01:57:00;101722.09;;;2.02;99.90
75298;BME280;63896;45.990;18.688;2023-03-01T02:00:11;101715.84;;;1.93;100.00
75298;BME280;63896;45.990;18.688;2023-03-01T02:03:20;101715.84;;;1.93;100.00
75298;BME280;63896;45.990;18.688;2023-03-01T02:06:35;101720.69;;;1.98;100.00
75298;BME280;63896;45.990;18.688;2023-03-01T02:09:42;101716.53;;;1.95;100.00
75298;BME280;63896;45.990;18.688;2023-03-01T02:12:47;101719.47;;;2.02;100.00
75298;BME280;63896;45.990;18.688;2023-03-01T02:15:50;101719.25;;;2.05;100.00
75298;BME280;63896;45.990;18.688;2023-03-01T02:18:55;101721.97;;;2.03;100.00
75298;BME280;63896;45.990;18.688;2023-03-01T02:22:08;101719.63;;;2.00;100.00
75298;BME280;63896;45.990;18.688;2023-03-01T02:28:35;101718.72;;;2.11;100.00
75298;BME280;63896;45.990;18.688;2023-03-01T02:31:38;101704.53;;;2.13;100.00
75298;BME280;63896;45.990;18.688;2023-03-01T02:34:46;101701.91;;;2.13;100.00
75298;BME280;63896;45.990;18.688;2023-03-01T02:37:50;101696.13;;;2.10;100.00
75298;BME280;63896;45.990;18.688;2023-03-01T02:40:54;101704.59;;;2.02;100.00
75298;BME280;63896;45.990;18.688;2023-03-01T02:43:59;101703.75;;;2.02;100.00
75298;BME280;63896;45.990;18.688;2023-03-01T02:47:04;101705.31;;;2.04;100.00
75298;BME280;63896;45.990;18.688;2023-03-01T02:53:53;101697.06;;;2.09;100.00
75298;BME280;63896;45.990;18.688;2023-03-01T02:56:57;101693.28;;;2.02;100.00
75298;BME280;63896;45.990;18.688;2023-03-01T03:00:06;101695.69;;;2.05;100.00
75298;BME280;63896;45.990;18.688;2023-03-01T03:03:19;101689.47;;;2.06;100.00
75298;BME280;63896;45.990;18.688;2023-03-01T03:06:22;101685.56;;;2.21;100.00
75298;BME280;63896;45.990;18.688;2023-03-01T03:09:25;101689.59;;;2.25;100.00
75298;BME280;63896;45.990;18.688;2023-03-01T03:12:28;101690.06;;;2.30;100.00
75298;BME280;63896;45.990;18.688;2023-03-01T03:15:31;101684.94;;;2.28;100.00
75298;BME280;63896;45.990;18.688;2023-03-01T03:18:38;101683.41;;;2.26;100.00
75298;BME280;63896;45.990;18.688;2023-03-01T03:21:41;101679.47;;;2.31;100.00
75298;BME280;63896;45.990;18.688;2023-03-01T03:24:44;101671.72;;;2.30;100.00
75298;BME280;63896;45.990;18.688;2023-03-01T03:27:49;101674.91;;;2.33;100.00
75298;BME280;63896;45.990;18.688;2023-03-01T03:30:53;101675.84;;;2.32;100.00
75298;BME280;63896;45.990;18.688;2023-03-01T03:33:56;101668.47;;;2.37;100.00
75298;BME280;63896;45.990;18.688;2023-03-01T03:36:59;101656.19;;;2.38;100.00
75298;BME280;63896;45.990;18.688;2023-03-01T03:40:02;101659.66;;;2.38;99.63
75298;BME280;63896;45.990;18.688;2023-03-01T03:43:12;101649.34;;;2.47;99.98
75298;BME280;63896;45.990;18.688;2023-03-01T03:46:15;101648.94;;;2.51;99.81
75298;BME280;63896;45.990;18.688;2023-03-01T03:49:19;101646.91;;;2.55;99.67
75298;BME280;63896;45.990;18.688;2023-03-01T03:52:22;101645.94;;;2.56;100.00
75298;BME280;63896;45.990;18.688;2023-03-01T03:55:25;101655.38;;;2.37;100.00
75298;BME280;63896;45.990;18.688;2023-03-01T03:58:33;101666.78;;;2.36;100.00
75298;BME280;63896;45.990;18.688;2023-03-01T04:01:36;101662.00;;;2.42;100.00
75298;BME280;63896;45.990;18.688;2023-03-01T04:04:39;101653.38;;;2.51;100.00
75298;BME280;63896;45.990;18.688;2023-03-01T04:07:42;101653.88;;;2.45;100.00
75298;BME280;63896;45.990;18.688;2023-03-01T04:10:49;101653.31;;;2.20;100.00
75298;BME280;63896;45.990;18.688;2023-03-01T04:13:54;101658.91;;;2.27;100.00
75298;BME280;63896;45.990;18.688;2023-03-01T04:16:57;101656.00;;;2.30;100.00
75298;BME280;63896;45.990;18.688;2023-03-01T04:20:00;101662.38;;;2.37;100.00
75298;BME280;63896;45.990;18.688;2023-03-01T04:23:16;101658.06;;;2.47;100.00
75298;BME280;63896;45.990;18.688;2023-03-01T04:26:22;101653.84;;;2.35;100.00
75298;BME280;63896;45.990;18.688;2023-03-01T04:29:25;101654.69;;;2.35;100.00
75298;BME280;63896;45.990;18.688;2023-03-01T04:32:28;101645.56;;;2.39;100.00
75298;BME280;63896;45.990;18.688;2023-03-01T04:35:31;101658.84;;;2.48;100.00
75298;BME280;63896;45.990;18.688;2023-03-01T04:38:35;101648.13;;;2.51;100.00
75298;BME280;63896;45.990;18.688;2023-03-01T04:41:39;101642.75;;;2.52;100.00
75298;BME280;63896;45.990;18.688;2023-03-01T04:44:43;101643.88;;;2.59;99.60
75298;BME280;63896;45.990;18.688;2023-03-01T04:47:46;101630.56;;;2.42;99.81
75298;BME280;63896;45.990;18.688;2023-03-01T04:50:49;101644.06;;;2.37;99.73
75298;BME280;63896;45.990;18.688;2023-03-01T04:53:53;101633.19;;;2.42;100.00
75298;BME280;63896;45.990;18.688;2023-03-01T04:56:56;101634.03;;;2.42;100.00
75298;BME280;63896;45.990;18.688;2023-03-01T04:59:59;101633.50;;;2.48;99.78
75298;BME280;63896;45.990;18.688;2023-03-01T05:03:02;101634.88;;;2.43;99.93
75298;BME280;63896;45.990;18.688;2023-03-01T05:06:05;101637.50;;;2.52;100.00
75298;BME280;63896;45.990;18.688;2023-03-01T05:09:08;101634.72;;;2.44;99.86
75298;BME280;63896;45.990;18.688;2023-03-01T05:12:12;101636.81;;;2.50;99.70
75298;BME280;63896;45.990;18.688;2023-03-01T05:15:15;101641.09;;;2.51;99.56
75298;BME280;63896;45.990;18.688;2023-03-01T05:18:18;101639.63;;;2.58;99.33
75298;BME280;63896;45.990;18.688;2023-03-01T05:21:21;101634.88;;;2.52;98.97
75298;BME280;63896;45.990;18.688;2023-03-01T05:24:24;101630.66;;;2.61;98.84
75298;BME280;63896;45.990;18.688;2023-03-01T05:27:27;101635.34;;;2.57;99.13
75298;BME280;63896;45.990;18.688;2023-03-01T05:30:32;101639.63;;;2.58;98.86
75298;BME280;63896;45.990;18.688;2023-03-01T05:33:39;101638.41;;;2.62;98.61
75298;BME280;63896;45.990;18.688;2023-03-01T05:36:43;101636.91;;;2.69;98.14
75298;BME280;63896;45.990;18.688;2023-03-01T05:39:46;101643.19;;;2.57;98.98
75298;BME280;63896;45.990;18.688;2023-03-01T05:42:54;101642.25;;;2.58;97.97
75298;BME280;63896;45.990;18.688;2023-03-01T05:45:57;101646.09;;;2.54;98.25
75298;BME280;63896;45.990;18.688;2023-03-01T05:49:00;101640.56;;;2.57;98.55
75298;BME280;63896;45.990;18.688;2023-03-01T05:52:05;101649.78;;;2.52;98.29
75298;BME280;63896;45.990;18.688;2023-03-01T05:55:08;101641.78;;;2.53;98.92
75298;BME280;63896;45.990;18.688;2023-03-01T05:58:16;101643.38;;;2.65;98.64
75298;BME280;63896;45.990;18.688;2023-03-01T06:01:19;101645.59;;;2.70;97.61
75298;BME280;63896;45.990;18.688;2023-03-01T06:04:22;101647.28;;;2.80;97.30
75298;BME280;63896;45.990;18.688;2023-03-01T06:07:25;101643.94;;;2.69;97.30
75298;BME280;63896;45.990;18.688;2023-03-01T06:10:28;101649.94;;;2.60;97.08
75298;BME280;63896;45.990;18.688;2023-03-01T06:13:32;101658.91;;;2.57;96.96
75298;BME280;63896;45.990;18.688;2023-03-01T06:16:35;101657.63;;;2.52;97.56
75298;BME280;63896;45.990;18.688;2023-03-01T06:19:37;101657.69;;;2.61;97.29
75298;BME280;63896;45.990;18.688;2023-03-01T06:22:41;101662.38;;;2.67;96.98
75298;BME280;63896;45.990;18.688;2023-03-01T06:25:44;101659.22;;;2.64;95.51
75298;BME280;63896;45.990;18.688;2023-03-01T06:28:47;101658.94;;;2.67;95.69
75298;BME280;63896;45.990;18.688;2023-03-01T06:31:50;101666.97;;;2.75;95.32
75298;BME280;63896;45.990;18.688;2023-03-01T06:34:53;101660.34;;;2.71;95.12
75298;BME280;63896;45.990;18.688;2023-03-01T06:37:56;101664.63;;;2.72;94.94
75298;BME280;63896;45.990;18.688;2023-03-01T06:41:00;101663.50;;;2.74;95.14
75298;BME280;63896;45.990;18.688;2023-03-01T06:44:04;101663.84;;;2.81;94.35
75298;BME280;63896;45.990;18.688;2023-03-01T06:47:07;101666.88;;;2.86;94.21
75298;BME280;63896;45.990;18.688;2023-03-01T06:50:11;101675.09;;;2.72;94.38
75298;BME280;63896;45.990;18.688;2023-03-01T06:53:15;101663.66;;;2.73;95.67
75298;BME280;63896;45.990;18.688;2023-03-01T06:56:20;101668.94;;;2.82;95.18
75298;BME280;63896;45.990;18.688;2023-03-01T06:59:23;101663.84;;;2.81;94.58
75298;BME280;63896;45.990;18.688;2023-03-01T07:02:26;101667.34;;;3.01;94.01
75298;BME280;63896;45.990;18.688;2023-03-01T07:05:30;101656.44;;;3.05;93.48
75298;BME280;63896;45.990;18.688;2023-03-01T07:08:33;101666.84;;;3.16;92.58
75298;BME280;63896;45.990;18.688;2023-03-01T07:11:38;101662.94;;;3.11;92.19
75298;BME280;63896;45.990;18.688;2023-03-01T07:14:43;101663.09;;;3.19;92.93
75298;BME280;63896;45.990;18.688;2023-03-01T07:17:46;101667.94;;;3.23;92.90
75298;BME280;63896;45.990;18.688;2023-03-01T07:20:53;101667.00;;;3.34;92.51
75298;BME280;63896;45.990;18.688;2023-03-01T07:23:56;101670.25;;;3.17;92.78
75298;BME280;63896;45.990;18.688;2023-03-01T07:26:59;101671.13;;;3.27;92.35
75298;BME280;63896;45.990;18.688;2023-03-01T07:30:03;101677.22;;;3.37;92.05
75298;BME280;63896;45.990;18.688;2023-03-01T07:33:08;101677.91;;;3.39;91.83
75298;BME280;63896;45.990;18.688;2023-03-01T07:36:11;101670.31;;;3.46;91.96
75298;BME280;63896;45.990;18.688;2023-03-01T07:39:15;101675.31;;;3.39;92.42
75298;BME280;63896;45.990;18.688;2023-03-01T07:42:21;101662.03;;;3.41;92.32
75298;BME280;63896;45.990;18.688;2023-03-01T07:45:25;101672.00;;;3.56;91.93
75298;BME280;63896;45.990;18.688;2023-03-01T07:48:30;101657.91;;;3.57;91.41
75298;BME280;63896;45.990;18.688;2023-03-01T07:51:35;101663.16;;;3.57;90.68
75298;BME280;63896;45.990;18.688;2023-03-01T07:54:44;101660.53;;;3.67;89.58
75298;BME280;63896;45.990;18.688;2023-03-01T07:57:48;101652.66;;;3.76;89.37
75298;BME280;63896;45.990;18.688;2023-03-01T08:00:51;101650.16;;;3.84;89.45
75298;BME280;63896;45.990;18.688;2023-03-01T08:03:54;101657.22;;;3.84;89.31
75298;BME280;63896;45.990;18.688;2023-03-01T08:06:59;101650.72;;;3.59;88.80
75298;BME280;63896;45.990;18.688;2023-03-01T08:10:04;101649.34;;;3.84;89.79
75298;BME280;63896;45.990;18.688;2023-03-01T08:13:08;101647.25;;;3.97;89.71
75298;BME280;63896;45.990;18.688;2023-03-01T08:16:14;101650.72;;;3.98;90.06
75298;BME280;63896;45.990;18.688;2023-03-01T08:19:17;101645.31;;;4.09;90.14
75298;BME280;63896;45.990;18.688;2023-03-01T08:22:20;101638.91;;;4.21;89.58
75298;BME280;63896;45.990;18.688;2023-03-01T08:25:23;101636.25;;;4.30;89.09
75298;BME280;63896;45.990;18.688;2023-03-01T08:28:26;101628.44;;;4.48;88.31
75298;BME280;63896;45.990;18.688;2023-03-01T08:31:36;101630.34;;;4.56;87.15
75298;BME280;63896;45.990;18.688;2023-03-01T08:34:41;101630.81;;;4.42;86.27
75298;BME280;63896;45.990;18.688;2023-03-01T08:37:48;101628.75;;;4.45;87.70
75298;BME280;63896;45.990;18.688;2023-03-01T08:40:59;101626.38;;;4.52;86.52
75298;BME280;63896;45.990;18.688;2023-03-01T08:44:03;101619.94;;;4.64;86.76
75298;BME280;63896;45.990;18.688;2023-03-01T08:47:06;101616.22;;;4.66;86.10
75298;BME280;63896;45.990;18.688;2023-03-01T08:50:10;101622.22;;;4.86;85.47
75298;BME280;63896;45.990;18.688;2023-03-01T08:53:14;101613.09;;;4.80;85.04
75298;BME280;63896;45.990;18.688;2023-03-01T08:56:18;101607.94;;;4.89;84.23
75298;BME280;63896;45.990;18.688;2023-03-01T08:59:21;101613.72;;;4.92;84.95
75298;BME280;63896;45.990;18.688;2023-03-01T09:02:25;101615.91;;;4.97;83.77
75298;BME280;63896;45.990;18.688;2023-03-01T09:05:31;101609.69;;;4.98;84.74
75298;BME280;63896;45.990;18.688;2023-03-01T09:08:39;101611.84;;;5.02;83.53
75298;BME280;63896;45.990;18.688;2023-03-01T09:11:43;101617.44;;;5.17;83.36
75298;BME280;63896;45.990;18.688;2023-03-01T09:14:49;101619.41;;;4.88;83.58
75298;BME280;63896;45.990;18.688;2023-03-01T09:17:54;101621.25;;;5.05;83.38
75298;BME280;63896;45.990;18.688;2023-03-01T09:21:14;101634.00;;;4.82;83.70
75298;BME280;63896;45.990;18.688;2023-03-01T09:24:18;101642.69;;;4.55;85.12
75298;BME280;63896;45.990;18.688;2023-03-01T09:27:21;101640.72;;;4.67;85.41
75298;BME280;63896;45.990;18.688;2023-03-01T09:30:25;101630.44;;;4.73;84.74
75298;BME280;63896;45.990;18.688;2023-03-01T09:33:31;101631.69;;;4.97;85.12
75298;BME280;63896;45.990;18.688;2023-03-01T09:36:34;101638.63;;;4.61;84.45
75298;BME280;63896;45.990;18.688;2023-03-01T09:39:37;101635.53;;;4.38;85.29
75298;BME280;63896;45.990;18.688;2023-03-01T09:46:12;101611.28;;;5.08;83.62
75298;BME280;63896;45.990;18.688;2023-03-01T09:49:21;101606.41;;;5.31;83.43
75298;BME280;63896;45.990;18.688;2023-03-01T09:55:56;101590.69;;;5.39;83.44
75298;BME280;63896;45.990;18.688;2023-03-01T09:59:23;101585.06;;;5.52;82.60
75298;BME280;63896;45.990;18.688;2023-03-01T10:02:48;101605.56;;;5.66;82.06
75298;BME280;63896;45.990;18.688;2023-03-01T10:12:12;101591.69;;;5.82;81.60
75298;BME280;63896;45.990;18.688;2023-03-01T10:15:25;101593.91;;;5.51;81.72
75298;BME280;63896;45.990;18.688;2023-03-01T10:18:33;101596.75;;;5.75;82.02
75298;BME280;63896;45.990;18.688;2023-03-01T10:21:44;101598.22;;;5.52;81.31
75298;BME280;63896;45.990;18.688;2023-03-01T10:24:51;101592.03;;;5.43;81.86
75298;BME280;63896;45.990;18.688;2023-03-01T10:31:25;101567.91;;;6.17;79.91
75298;BME280;63896;45.990;18.688;2023-03-01T10:34:34;101568.66;;;6.01;80.64
75298;BME280;63896;45.990;18.688;2023-03-01T10:37:56;101568.84;;;6.08;81.21
75298;BME280;63896;45.990;18.688;2023-03-01T10:41:05;101556.03;;;6.47;79.53
75298;BME280;63896;45.990;18.688;2023-03-01T10:44:39;101544.63;;;6.88;78.68
75298;BME280;63896;45.990;18.688;2023-03-01T10:47:42;101533.72;;;6.91;77.73
75298;BME280;63896;45.990;18.688;2023-03-01T10:51:12;101529.19;;;7.26;76.59
75298;BME280;63896;45.990;18.688;2023-03-01T10:54:20;101527.88;;;7.30;76.42
75298;BME280;63896;45.990;18.688;2023-03-01T10:57:29;101520.06;;;7.68;75.79
75298;BME280;63896;45.990;18.688;2023-03-01T11:00:55;101510.25;;;8.01;73.36
75298;BME280;63896;45.990;18.688;2023-03-01T11:04:13;101505.84;;;7.86;72.94
75298;BME280;63896;45.990;18.688;2023-03-01T11:07:18;101499.16;;;8.14;72.45
75298;BME280;63896;45.990;18.688;2023-03-01T11:10:34;101491.38;;;8.82;69.83
75298;BME280;63896;45.990;18.688;2023-03-01T11:13:52;101489.22;;;9.08;69.63
75298;BME280;63896;45.990;18.688;2023-03-01T11:17:04;101493.97;;;9.50;67.50
75298;BME280;63896;45.990;18.688;2023-03-01T11:24:17;101478.84;;;9.22;69.16
75298;BME280;63896;45.990;18.688;2023-03-01T11:27:36;101467.59;;;9.57;67.36
75298;BME280;63896;45.990;18.688;2023-03-01T11:34:19;101458.97;;;9.40;67.01
75298;BME280;63896;45.990;18.688;2023-03-01T11:41:27;101458.66;;;10.02;66.07
75298;BME280;63896;45.990;18.688;2023-03-01T11:44:34;101453.41;;;10.09;64.46
75298;BME280;63896;45.990;18.688;2023-03-01T11:47:55;101450.78;;;9.13;66.50
75298;BME280;63896;45.990;18.688;2023-03-01T11:51:05;101452.88;;;8.57;67.44
75298;BME280;63896;45.990;18.688;2023-03-01T12:01:22;101444.84;;;8.42;69.89
75298;BME280;63896;45.990;18.688;2023-03-01T12:05:02;101435.94;;;8.89;69.88
75298;BME280;63896;45.990;18.688;2023-03-01T12:08:45;101431.19;;;8.31;69.83
75298;BME280;63896;45.990;18.688;2023-03-01T12:19:01;101404.63;;;9.15;68.96
75298;BME280;63896;45.990;18.688;2023-03-01T12:22:32;101406.59;;;8.76;68.98
75298;BME280;63896;45.990;18.688;2023-03-01T12:25:55;101408.13;;;8.70;69.10
75298;BME280;63896;45.990;18.688;2023-03-01T12:32:57;101396.88;;;9.43;68.85
75298;BME280;63896;45.990;18.688;2023-03-01T12:36:10;101403.72;;;9.23;68.44
75298;BME280;63896;45.990;18.688;2023-03-01T12:53:51;101392.66;;;8.82;70.76
75298;BME280;63896;45.990;18.688;2023-03-01T12:57:17;101391.38;;;8.55;70.36
75298;BME280;63896;45.990;18.688;2023-03-01T13:00:39;101384.50;;;8.69;69.55
75298;BME280;63896;45.990;18.688;2023-03-01T13:04:31;101380.00;;;8.69;70.81
75298;BME280;63896;45.990;18.688;2023-03-01T13:07:25;101376.72;;;8.90;69.07
75298;BME280;63896;45.990;18.688;2023-03-01T13:14:54;101367.22;;;8.27;70.73
75298;BME280;63896;45.990;18.688;2023-03-01T13:17:43;101367.16;;;7.82;71.55
75298;BME280;63896;45.990;18.688;2023-03-01T13:20:52;101372.72;;;7.56;72.53
75298;BME280;63896;45.990;18.688;2023-03-01T13:23:56;101365.69;;;7.32;74.01
75298;BME280;63896;45.990;18.688;2023-03-01T13:33:40;101358.75;;;7.23;74.73
75298;BME280;63896;45.990;18.688;2023-03-01T13:36:47;101355.28;;;7.31;75.21
75298;BME280;63896;45.990;18.688;2023-03-01T13:39:50;101355.47;;;7.21;75.71
75298;BME280;63896;45.990;18.688;2023-03-01T13:42:54;101363.91;;;7.16;75.78
75298;BME280;63896;45.990;18.688;2023-03-01T13:46:20;101362.09;;;7.17;76.35
75298;BME280;63896;45.990;18.688;2023-03-01T13:49:40;101361.94;;;7.10;75.26
75298;BME280;63896;45.990;18.688;2023-03-01T13:52:50;101368.03;;;7.03;75.34
75298;BME280;63896;45.990;18.688;2023-03-01T13:56:01;101356.81;;;7.17;75.89
75298;BME280;63896;45.990;18.688;2023-03-01T14:02:13;101344.13;;;7.12;75.59
75298;BME280;63896;45.990;18.688;2023-03-01T14:05:16;101349.25;;;7.06;75.66
75298;BME280;63896;45.990;18.688;2023-03-01T14:08:21;101338.34;;;7.09;76.24
75298;BME280;63896;45.990;18.688;2023-03-01T14:14:53;101332.75;;;7.04;76.71
75298;BME280;63896;45.990;18.688;2023-03-01T14:21:19;101317.41;;;7.07;76.99
75298;BME280;63896;45.990;18.688;2023-03-01T14:24:22;101319.19;;;7.15;76.58
75298;BME280;63896;45.990;18.688;2023-03-01T14:27:28;101309.31;;;7.09;76.39
75298;BME280;63896;45.990;18.688;2023-03-01T14:30:57;101310.13;;;7.17;76.57
75298;BME280;63896;45.990;18.688;2023-03-01T14:34:00;101309.13;;;7.18;76.89
75298;BME280;63896;45.990;18.688;2023-03-01T14:37:34;101298.56;;;7.18;77.00
75298;BME280;63896;45.990;18.688;2023-03-01T14:40:37;101300.69;;;7.23;77.34
75298;BME280;63896;45.990;18.688;2023-03-01T14:43:46;101295.75;;;7.20;77.24
75298;BME280;63896;45.990;18.688;2023-03-01T14:46:59;101292.13;;;7.29;76.67
75298;BME280;63896;45.990;18.688;2023-03-01T14:50:32;101297.41;;;7.21;77.15
75298;BME280;63896;45.990;18.688;2023-03-01T14:53:37;101300.09;;;7.05;77.45
75298;BME280;63896;45.990;18.688;2023-03-01T14:56:54;101296.97;;;7.01;77.80
75298;BME280;63896;45.990;18.688;2023-03-01T14:59:59;101291.50;;;7.03;78.30
75298;BME280;63896;45.990;18.688;2023-03-01T15:03:11;101293.66;;;6.99;78.24
75298;BME280;63896;45.990;18.688;2023-03-01T15:06:18;101307.06;;;6.90;78.06
75298;BME280;63896;45.990;18.688;2023-03-01T15:09:22;101290.25;;;6.91;79.31
75298;BME280;63896;45.990;18.688;2023-03-01T15:15:42;101283.97;;;6.92;79.60
75298;BME280;63896;45.990;18.688;2023-03-01T15:18:48;101281.81;;;6.95;80.01
75298;BME280;63896;45.990;18.688;2023-03-01T15:21:51;101277.69;;;7.01;79.42
75298;BME280;63896;45.990;18.688;2023-03-01T15:24:54;101269.75;;;7.09;79.29
75298;BME280;63896;45.990;18.688;2023-03-01T15:27:59;101283.75;;;7.09;78.96
75298;BME280;63896;45.990;18.688;2023-03-01T15:31:18;101281.63;;;7.05;78.58
75298;BME280;63896;45.990;18.688;2023-03-01T15:40:49;101269.06;;;7.07;77.54
75298;BME280;63896;45.990;18.688;2023-03-01T15:43:53;101262.28;;;7.21;77.45
75298;BME280;63896;45.990;18.688;2023-03-01T15:46:58;101259.31;;;7.15;77.31
75298;BME280;63896;45.990;18.688;2023-03-01T15:50:02;101252.56;;;7.21;77.11
75298;BME280;63896;45.990;18.688;2023-03-01T15:53:10;101257.50;;;7.16;77.48
75298;BME280;63896;45.990;18.688;2023-03-01T15:56:13;101259.03;;;7.10;77.16
75298;BME280;63896;45.990;18.688;2023-03-01T15:59:17;101252.47;;;6.98;77.64
75298;BME280;63896;45.990;18.688;2023-03-01T16:02:21;101248.81;;;6.99;77.29
75298;BME280;63896;45.990;18.688;2023-03-01T16:05:27;101244.56;;;6.90;77.43
75298;BME280;63896;45.990;18.688;2023-03-01T16:08:30;101249.03;;;6.82;76.94
75298;BME280;63896;45.990;18.688;2023-03-01T16:11:35;101248.69;;;6.85;76.60
75298;BME280;63896;45.990;18.688;2023-03-01T16:14:39;101244.59;;;6.82;77.01
75298;BME280;63896;45.990;18.688;2023-03-01T16:17:42;101244.44;;;6.76;77.53
75298;BME280;63896;45.990;18.688;2023-03-01T16:20:48;101254.47;;;6.80;77.43
75298;BME280;63896;45.990;18.688;2023-03-01T16:23:52;101259.28;;;6.68;78.20
75298;BME280;63896;45.990;18.688;2023-03-01T16:26:55;101251.56;;;6.67;77.87
75298;BME280;63896;45.990;18.688;2023-03-01T16:29:58;101263.41;;;6.63;78.64
75298;BME280;63896;45.990;18.688;2023-03-01T16:33:02;101257.47;;;6.69;78.82
75298;BME280;63896;45.990;18.688;2023-03-01T16:36:12;101266.69;;;6.65;78.34
75298;BME280;63896;45.990;18.688;2023-03-01T16:39:14;101262.75;;;6.53;78.58
75298;BME280;63896;45.990;18.688;2023-03-01T16:42:18;101263.41;;;6.63;78.38
75298;BME280;63896;45.990;18.688;2023-03-01T16:45:22;101254.84;;;6.61;78.35
75298;BME280;63896;45.990;18.688;2023-03-01T16:48:26;101260.13;;;6.53;78.31
75298;BME280;63896;45.990;18.688;2023-03-01T16:51:29;101260.94;;;6.53;78.48
75298;BME280;63896;45.990;18.688;2023-03-01T16:54:33;101258.16;;;6.47;78.31
75298;BME280;63896;45.990;18.688;2023-03-01T16:57:38;101257.00;;;6.49;78.12
75298;BME280;63896;45.990;18.688;2023-03-01T17:00:43;101264.75;;;6.43;78.30
75298;BME280;63896;45.990;18.688;2023-03-01T17:03:46;101261.78;;;6.46;78.95
75298;BME280;63896;45.990;18.688;2023-03-01T17:06:51;101270.03;;;6.43;78.70
75298;BME280;63896;45.990;18.688;2023-03-01T17:09:54;101268.34;;;6.26;79.66
75298;BME280;63896;45.990;18.688;2023-03-01T17:12:56;101266.06;;;6.31;79.90
75298;BME280;63896;45.990;18.688;2023-03-01T17:15:59;101273.16;;;6.30;79.24
75298;BME280;63896;45.990;18.688;2023-03-01T17:19:03;101278.59;;;6.20;80.18
75298;BME280;63896;45.990;18.688;2023-03-01T17:22:06;101283.69;;;6.22;80.31
75298;BME280;63896;45.990;18.688;2023-03-01T17:25:10;101280.88;;;6.23;79.83
75298;BME280;63896;45.990;18.688;2023-03-01T17:28:14;101276.94;;;6.28;79.66
75298;BME280;63896;45.990;18.688;2023-03-01T17:31:23;101287.16;;;6.31;80.06
75298;BME280;63896;45.990;18.688;2023-03-01T17:34:26;101286.66;;;6.27;80.25
75298;BME280;63896;45.990;18.688;2023-03-01T17:37:29;101273.16;;;6.30;79.72
75298;BME280;63896;45.990;18.688;2023-03-01T17:40:33;101275.97;;;6.29;79.89
75298;BME280;63896;45.990;18.688;2023-03-01T17:43:37;101274.31;;;6.19;79.60
75298;BME280;63896;45.990;18.688;2023-03-01T17:46:53;101287.78;;;6.08;80.09
75298;BME280;63896;45.990;18.688;2023-03-01T17:49:56;101285.31;;;6.07;80.86